createdAt,value
2023-04-18T00:01:23.375Z,100949.91
2023-04-18T00:03:50.814Z,100951.72
2023-04-18T00:06:18.046Z,100952.72
2023-04-18T00:08:44.563Z,100946.66
2023-04-18T00:11:11.137Z,100938.84
2023-04-18T00:13:39.441Z,100935.22
2023-04-18T00:16:07.687Z,100942.44
2023-04-18T00:18:36.771Z,100933.00
2023-04-18T00:21:04.375Z,100932.06
2023-04-18T00:23:31.050Z,100932.09
2023-04-18T00:25:57.679Z,100933.16
2023-04-18T00:28:24.335Z,100937.50
2023-04-18T00:30:50.916Z,100943.88
2023-04-18T00:33:17.825Z,100936.25
2023-04-18T00:35:44.586Z,100937.84
2023-04-18T00:38:11.144Z,100923.97
2023-04-18T00:40:38.467Z,100932.75
2023-04-18T00:43:08.317Z,100931.56
2023-04-18T00:45:35.160Z,100932.50
2023-04-18T00:48:02.078Z,100932.53
2023-04-18T00:50:28.860Z,100935.31
2023-04-18T00:52:56.727Z,100929.13
2023-04-18T00:55:24.351Z,100933.91
2023-04-18T00:57:52.024Z,100929.44
2023-04-18T01:00:18.763Z,100929.44
2023-04-18T01:02:45.465Z,100938.16
2023-04-18T01:05:12.026Z,100917.63
2023-04-18T01:07:41.594Z,100925.56
2023-04-18T01:10:10.095Z,100920.56
2023-04-18T01:12:37.568Z,100918.63
2023-04-18T01:15:07.829Z,100920.53
2023-04-18T01:17:35.956Z,100913.63
2023-04-18T01:20:05.711Z,100908.47
2023-04-18T01:22:33.191Z,100909.34
2023-04-18T01:24:59.816Z,100912.00
2023-04-18T01:27:26.460Z,100910.19
2023-04-18T01:29:52.988Z,100908.78
2023-04-18T01:32:20.911Z,100913.28
2023-04-18T01:34:47.723Z,100915.03
2023-04-18T01:37:14.361Z,100914.44
2023-04-18T01:39:40.815Z,100916.84
2023-04-18T01:42:07.339Z,100912.69
2023-04-18T01:44:33.796Z,100908.66
2023-04-18T01:47:00.561Z,100903.44
2023-04-18T01:49:27.217Z,100907.81
2023-04-18T01:52:14.356Z,100909.38
2023-04-18T01:55:06.010Z,100911.84
2023-04-18T01:57:52.863Z,100914.47
2023-04-18T02:00:39.334Z,100913.75
2023-04-18T02:03:26.102Z,100910.47
2023-04-18T02:06:12.842Z,100902.50
2023-04-18T02:08:39.305Z,100900.03
2023-04-18T02:11:05.931Z,100901.91
2023-04-18T02:13:32.471Z,100909.13
2023-04-18T02:15:59.101Z,100903.94
2023-04-18T02:18:27.158Z,100908.47
2023-04-18T02:20:53.822Z,100906.69
2023-04-18T02:23:22.013Z,100906.63
2023-04-18T02:25:48.511Z,100901.41
2023-04-18T02:28:17.222Z,100907.47
2023-04-18T02:30:43.786Z,100905.00
2023-04-18T02:33:10.493Z,100906.63
2023-04-18T02:35:37.644Z,100904.97
2023-04-18T02:38:04.147Z,100905.22
2023-04-18T02:40:30.662Z,100904.31
2023-04-18T02:42:59.272Z,100905.41
2023-04-18T02:45:25.841Z,100909.63
2023-04-18T02:47:56.060Z,100905.28
2023-04-18T02:50:24.654Z,100908.88
2023-04-18T02:52:52.431Z,100914.81
2023-04-18T02:55:21.833Z,100910.69
2023-04-18T02:57:48.435Z,100908.13
2023-04-18T03:00:36.334Z,100902.81
2023-04-18T03:03:22.607Z,100902.72
2023-04-18T03:06:18.724Z,100900.22
2023-04-18T03:08:45.398Z,100907.13
2023-04-18T03:11:12.776Z,100902.09
2023-04-18T03:13:39.289Z,100905.59
2023-04-18T03:16:06.473Z,100910.72
2023-04-18T03:18:33.846Z,100920.50
2023-04-18T03:21:00.683Z,100916.13
2023-04-18T03:23:28.865Z,100915.38
2023-04-18T03:25:55.574Z,100919.63
2023-04-18T03:28:22.392Z,100914.31
2023-04-18T03:30:50.632Z,100913.81
2023-04-18T03:33:17.397Z,100920.75
2023-04-18T03:35:45.298Z,100914.63
2023-04-18T03:38:11.855Z,100920.66
2023-04-18T03:40:39.586Z,100914.50
2023-04-18T03:43:13.537Z,100916.16
2023-04-18T03:45:41.295Z,100912.84
2023-04-18T03:48:07.808Z,100918.78
2023-04-18T03:50:38.693Z,100916.34
2023-04-18T03:53:08.816Z,100909.59
2023-04-18T03:55:36.390Z,100915.53
2023-04-18T03:58:03.189Z,100911.88
2023-04-18T04:00:30.027Z,100904.88
2023-04-18T04:03:02.146Z,100910.50
2023-04-18T04:05:28.948Z,100908.06
2023-04-18T04:07:55.523Z,100906.34
2023-04-18T04:10:22.908Z,100905.31
2023-04-18T04:12:50.416Z,100898.38
2023-04-18T04:15:17.813Z,100908.72
2023-04-18T04:17:54.201Z,100908.59
2023-04-18T04:20:24.663Z,100902.53
2023-04-18T04:22:58.902Z,100906.03
2023-04-18T04:25:28.745Z,100901.06
2023-04-18T04:28:01.263Z,100912.50
2023-04-18T04:30:28.692Z,100914.00
2023-04-18T04:32:56.276Z,100904.63
2023-04-18T04:35:22.867Z,100902.69
2023-04-18T04:37:50.639Z,100907.03
2023-04-18T04:40:29.693Z,100910.00
2023-04-18T04:43:05.567Z,100914.19
2023-04-18T04:45:39.569Z,100906.44
2023-04-18T04:48:06.341Z,100909.13
2023-04-18T04:50:38.487Z,100916.13
2023-04-18T04:53:06.246Z,100915.72
2023-04-18T04:55:33.997Z,100914.91
2023-04-18T04:58:02.182Z,100919.41
2023-04-18T05:00:42.549Z,100917.72
2023-04-18T05:03:10.667Z,100921.94
2023-04-18T05:05:37.721Z,100924.56
2023-04-18T05:08:04.407Z,100929.56
2023-04-18T05:10:31.232Z,100921.69
2023-04-18T05:12:57.853Z,100932.06
2023-04-18T05:15:24.981Z,100938.91
2023-04-18T05:17:51.611Z,100938.72
2023-04-18T05:20:18.174Z,100943.91
2023-04-18T05:22:44.658Z,100947.38
2023-04-18T05:25:12.181Z,100951.59
2023-04-18T05:27:38.890Z,100953.31
2023-04-18T05:30:06.047Z,100954.88
2023-04-18T05:32:32.578Z,100954.06
2023-04-18T05:34:59.103Z,100961.81
2023-04-18T05:37:25.766Z,100966.00
2023-04-18T05:39:52.254Z,100966.03
2023-04-18T05:42:18.665Z,100968.56
2023-04-18T05:44:45.173Z,100970.41
2023-04-18T05:47:11.688Z,100966.88
2023-04-18T05:49:38.152Z,100971.94
2023-04-18T05:52:04.804Z,100972.59
2023-04-18T05:54:31.326Z,100975.13
2023-04-18T05:56:58.373Z,100976.03
2023-04-18T05:59:26.719Z,100981.31
2023-04-18T06:01:53.514Z,100986.53
2023-04-18T06:04:21.079Z,100976.13
2023-04-18T06:06:47.894Z,100991.00
2023-04-18T06:09:14.469Z,100989.31
2023-04-18T06:11:40.969Z,100983.06
2023-04-18T06:14:07.895Z,100989.91
2023-04-18T06:16:37.016Z,100984.88
2023-04-18T06:19:05.041Z,100989.88
2023-04-18T06:21:31.529Z,100991.53
2023-04-18T06:23:58.059Z,100990.41
2023-04-18T06:26:24.506Z,100991.44
2023-04-18T06:28:50.988Z,100988.94
2023-04-18T06:31:17.562Z,100987.88
2023-04-18T06:33:44.186Z,100997.13
2023-04-18T06:36:10.619Z,100986.72
2023-04-18T06:38:37.095Z,100988.59
2023-04-18T06:41:03.668Z,100996.47
2023-04-18T06:43:30.116Z,100995.47
2023-04-18T06:45:56.924Z,100999.72
2023-04-18T06:48:23.597Z,100997.03
2023-04-18T06:50:50.327Z,100999.44
2023-04-18T06:53:16.751Z,100991.56
2023-04-18T06:55:43.331Z,100992.94
2023-04-18T06:58:10.057Z,100999.00
2023-04-18T07:00:36.657Z,100995.50
2023-04-18T07:03:11.134Z,101004.94
2023-04-18T07:05:38.925Z,100996.50
2023-04-18T07:08:05.616Z,101005.78
2023-04-18T07:10:32.174Z,101000.56
2023-04-18T07:12:58.919Z,100998.72
2023-04-18T07:15:25.360Z,100999.63
2023-04-18T07:17:52.000Z,101005.56
2023-04-18T07:20:18.686Z,101000.78
2023-04-18T07:22:46.002Z,101004.59
2023-04-18T07:25:12.541Z,101009.56
2023-04-18T07:27:39.115Z,101017.38
2023-04-18T07:30:06.300Z,101006.22
2023-04-18T07:32:32.951Z,101008.63
2023-04-18T07:34:59.896Z,101009.28
2023-04-18T07:37:26.667Z,100998.72
2023-04-18T07:39:53.837Z,100996.13
2023-04-18T07:42:20.592Z,101004.59
2023-04-18T07:44:47.439Z,101000.25
2023-04-18T07:47:13.937Z,101001.63
2023-04-18T07:49:40.830Z,101000.28
2023-04-18T07:52:07.361Z,101006.31
2023-04-18T07:54:33.820Z,101001.91
2023-04-18T07:57:00.759Z,101001.56
2023-04-18T07:59:29.457Z,101011.81
2023-04-18T08:01:56.027Z,101013.09
2023-04-18T08:04:22.774Z,101004.91
2023-04-18T08:06:49.433Z,101016.41
2023-04-18T08:09:16.375Z,101013.00
2023-04-18T08:11:44.183Z,101012.84
2023-04-18T08:14:10.983Z,101018.13
2023-04-18T08:16:38.289Z,101013.88
2023-04-18T08:19:06.000Z,101011.69
2023-04-18T08:21:32.637Z,101021.31
2023-04-18T08:23:59.221Z,101019.59
2023-04-18T08:26:25.911Z,101015.09
2023-04-18T08:28:52.457Z,101015.50
2023-04-18T08:31:18.995Z,101015.47
2023-04-18T08:33:45.617Z,101014.72
2023-04-18T08:36:12.308Z,101019.13
2023-04-18T08:38:38.777Z,101023.13
2023-04-18T08:41:05.675Z,101019.09
2023-04-18T08:43:32.381Z,101016.28
2023-04-18T08:46:00.540Z,101018.94
2023-04-18T08:48:29.941Z,101014.31
2023-04-18T08:50:58.583Z,101018.69
2023-04-18T08:53:28.388Z,101019.34
2023-04-18T08:55:58.052Z,101025.16
2023-04-18T08:58:27.241Z,101013.00
2023-04-18T09:00:54.807Z,101019.31
2023-04-18T09:03:42.449Z,101021.91
2023-04-18T09:06:09.457Z,101020.63
2023-04-18T09:08:36.032Z,101017.16
2023-04-18T09:11:21.626Z,101020.00
2023-04-18T09:13:48.552Z,101019.78
2023-04-18T09:16:15.079Z,101025.19
2023-04-18T09:18:42.323Z,101021.16
2023-04-18T09:21:19.332Z,101018.19
2023-04-18T09:23:50.370Z,101014.25
2023-04-18T09:26:33.731Z,101007.13
2023-04-18T09:29:01.017Z,101015.66
2023-04-18T09:31:29.079Z,101008.25
2023-04-18T09:33:56.647Z,101012.28
2023-04-18T09:36:24.971Z,101018.38
2023-04-18T09:38:56.029Z,101019.66
2023-04-18T09:41:23.431Z,101005.59
2023-04-18T09:43:50.322Z,101026.41
2023-04-18T09:46:21.578Z,101011.97
2023-04-18T09:48:48.235Z,101009.16
2023-04-18T09:51:16.119Z,101013.25
2023-04-18T09:53:47.872Z,101011.47
2023-04-18T09:56:29.445Z,101011.72
2023-04-18T09:59:00.909Z,101009.22
2023-04-18T10:01:30.813Z,101008.47
2023-04-18T10:04:01.371Z,101001.13
2023-04-18T10:06:28.942Z,100994.88
2023-04-18T10:08:56.277Z,101002.13
2023-04-18T10:11:24.052Z,100999.03
2023-04-18T10:13:55.596Z,101002.00
2023-04-18T10:16:22.634Z,101002.53
2023-04-18T10:18:50.683Z,100996.34
2023-04-18T10:21:17.273Z,100995.97
2023-04-18T10:23:46.036Z,100992.03
2023-04-18T10:26:12.510Z,100994.88
2023-04-18T10:28:54.560Z,100985.81
2023-04-18T10:31:28.586Z,100991.72
2023-04-18T10:36:28.804Z,100987.06
2023-04-18T10:39:20.918Z,100973.06
2023-04-18T10:41:51.427Z,100974.13
2023-04-18T10:44:23.023Z,100975.66
2023-04-18T10:46:52.978Z,100979.25
2023-04-18T10:49:26.405Z,100980.81
2023-04-18T10:51:59.600Z,100974.09
2023-04-18T10:54:28.087Z,100971.78
2023-04-18T10:56:56.651Z,100952.66
2023-04-18T10:59:25.271Z,100960.41
2023-04-18T11:01:57.769Z,100961.47
2023-04-18T11:04:25.716Z,100964.34
2023-04-18T11:06:58.222Z,100953.78
2023-04-18T11:09:24.840Z,100941.97
2023-04-18T11:12:05.218Z,100948.88
2023-04-18T11:14:46.509Z,100949.31
2023-04-18T11:17:18.204Z,100939.13
2023-04-18T11:19:44.785Z,100946.09
2023-04-18T11:22:11.980Z,100940.44
2023-04-18T11:24:38.896Z,100945.59
2023-04-18T11:27:05.773Z,100950.94
2023-04-18T11:29:32.433Z,100953.81
2023-04-18T11:31:59.019Z,100946.19
2023-04-18T11:34:33.013Z,100959.16
2023-04-18T11:36:59.843Z,100951.63
2023-04-18T11:39:26.332Z,100953.44
2023-04-18T11:41:55.354Z,100962.56
2023-04-18T11:44:26.107Z,100949.63
2023-04-18T11:46:53.449Z,100957.97
2023-04-18T11:49:30.479Z,100947.72
2023-04-18T11:51:57.831Z,100950.09
2023-04-18T11:54:37.429Z,100957.16
2023-04-18T11:57:04.428Z,100950.41
2023-04-18T11:59:31.089Z,100951.56
2023-04-18T12:02:14.752Z,100956.81
2023-04-18T12:04:53.064Z,100955.75
2023-04-18T12:07:33.748Z,100961.09
2023-04-18T12:10:00.809Z,100967.69
2023-04-18T12:12:27.279Z,100959.59
2023-04-18T12:15:00.599Z,100963.28
2023-04-18T12:17:28.328Z,100962.16
2023-04-18T12:19:55.436Z,100968.91
2023-04-18T12:22:45.749Z,100961.41
2023-04-18T12:25:13.986Z,100964.59
2023-04-18T12:27:55.681Z,100956.91
2023-04-18T12:30:24.648Z,100965.75
2023-04-18T12:32:59.836Z,100967.28
2023-04-18T12:35:27.297Z,100971.56
2023-04-18T12:37:56.019Z,100962.34
2023-04-18T12:40:23.788Z,100956.91
2023-04-18T12:42:51.144Z,100957.66
2023-04-18T12:45:19.085Z,100954.53
2023-04-18T12:47:47.770Z,100950.06
2023-04-18T12:50:23.086Z,100944.38
2023-04-18T12:52:53.450Z,100954.84
2023-04-18T12:55:19.990Z,100947.97
2023-04-18T12:57:46.464Z,100943.59
2023-04-18T13:00:14.053Z,100944.84
2023-04-18T13:02:43.502Z,100942.00
2023-04-18T13:05:12.545Z,100938.06
2023-04-18T13:07:40.565Z,100940.66
2023-04-18T13:10:08.991Z,100937.88
2023-04-18T13:12:35.843Z,100944.75
2023-04-18T13:15:03.304Z,100942.09
2023-04-18T13:17:29.832Z,100944.72
2023-04-18T13:19:56.538Z,100935.47
2023-04-18T13:22:23.044Z,100933.84
2023-04-18T13:24:49.696Z,100934.88
2023-04-18T13:27:17.003Z,100937.78
2023-04-18T13:29:44.219Z,100933.34
2023-04-18T13:32:11.428Z,100928.31
2023-04-18T13:34:39.675Z,100932.59
2023-04-18T13:37:06.439Z,100925.00
2023-04-18T13:39:33.748Z,100935.13
2023-04-18T13:42:03.100Z,100932.16
2023-04-18T13:44:34.150Z,100927.19
2023-04-18T13:47:01.705Z,100927.16
2023-04-18T13:49:28.857Z,100919.03
2023-04-18T13:51:57.519Z,100920.13
2023-04-18T13:54:29.480Z,100928.72
2023-04-18T13:57:03.163Z,100918.22
2023-04-18T13:59:33.248Z,100923.06
2023-04-18T14:02:00.209Z,100929.88
2023-04-18T14:04:27.402Z,100919.72
2023-04-18T14:06:57.155Z,100927.91
2023-04-18T14:09:23.674Z,100921.81
2023-04-18T14:11:51.418Z,100921.97
2023-04-18T14:14:18.218Z,100912.03
2023-04-18T14:16:45.093Z,100915.16
2023-04-18T14:19:11.889Z,100914.69
2023-04-18T14:21:38.394Z,100910.38
2023-04-18T14:24:05.631Z,100913.50
2023-04-18T14:26:32.201Z,100906.41
2023-04-18T14:28:58.757Z,100904.88
2023-04-18T14:31:28.071Z,100906.47
2023-04-18T14:33:54.623Z,100902.22
2023-04-18T14:36:21.138Z,100907.44
2023-04-18T14:38:49.211Z,100903.94
2023-04-18T14:41:16.380Z,100907.16
2023-04-18T14:43:43.191Z,100900.38
2023-04-18T14:46:14.218Z,100903.16
2023-04-18T14:48:40.903Z,100892.19
2023-04-18T14:51:07.810Z,100895.88
2023-04-18T14:53:34.372Z,100888.38
2023-04-18T14:56:01.170Z,100880.75
2023-04-18T14:58:27.739Z,100886.75
2023-04-18T15:00:54.269Z,100877.94
2023-04-18T15:03:20.942Z,100879.63
2023-04-18T15:05:48.842Z,100892.16
2023-04-18T15:08:16.160Z,100886.50
2023-04-18T15:10:42.958Z,100887.34
2023-04-18T15:13:11.196Z,100882.16
2023-04-18T15:15:39.595Z,100879.63
2023-04-18T15:18:08.261Z,100879.19
2023-04-18T15:20:36.856Z,100880.41
2023-04-18T15:23:03.627Z,100876.06
2023-04-18T15:25:30.559Z,100871.59
2023-04-18T15:27:58.306Z,100868.72
2023-04-18T15:30:25.441Z,100876.63
2023-04-18T15:32:53.862Z,100874.16
2023-04-18T15:35:20.861Z,100867.56
2023-04-18T15:37:47.552Z,100859.31
2023-04-18T15:40:16.243Z,100865.81
2023-04-18T15:42:43.682Z,100870.25
2023-04-18T15:45:11.613Z,100873.50
2023-04-18T15:47:38.809Z,100872.31
2023-04-18T15:50:06.097Z,100880.34
2023-04-18T15:52:33.036Z,100878.31
2023-04-18T15:55:00.303Z,100878.69
2023-04-18T15:57:29.240Z,100876.94
2023-04-18T15:59:56.008Z,100875.56
2023-04-18T16:02:22.855Z,100886.59
2023-04-18T16:04:49.573Z,100882.72
2023-04-18T16:07:16.646Z,100875.97
2023-04-18T16:09:43.065Z,100876.13
2023-04-18T16:12:09.637Z,100875.47
2023-04-18T16:14:36.071Z,100880.22
2023-04-18T16:17:03.092Z,100881.97
2023-04-18T16:19:29.684Z,100880.16
2023-04-18T16:21:56.272Z,100897.31
2023-04-18T16:24:22.755Z,100886.38
2023-04-18T16:26:49.181Z,100898.13
2023-04-18T16:29:15.712Z,100895.84
2023-04-18T16:31:43.202Z,100900.72
2023-04-18T16:34:09.833Z,100906.03
2023-04-18T16:36:36.389Z,100899.66
2023-04-18T16:39:04.531Z,100894.88
2023-04-18T16:41:31.131Z,100901.78
2023-04-18T16:43:58.136Z,100902.28
2023-04-18T16:46:25.335Z,100895.47
2023-04-18T16:48:52.580Z,100899.78
2023-04-18T16:51:19.295Z,100901.78
2023-04-18T16:53:46.638Z,100906.47
2023-04-18T16:56:13.204Z,100902.16
2023-04-18T16:58:39.721Z,100915.81
2023-04-18T17:01:08.138Z,100913.41
2023-04-18T17:03:34.893Z,100912.75
2023-04-18T17:06:01.665Z,100918.47
2023-04-18T17:08:32.782Z,100914.97
2023-04-18T17:10:59.718Z,100919.09
2023-04-18T17:13:27.171Z,100919.13
2023-04-18T17:15:54.109Z,100921.78
2023-04-18T17:18:20.660Z,100934.69
2023-04-18T17:20:47.640Z,100941.06
2023-04-18T17:23:14.184Z,100944.22
2023-04-18T17:25:40.785Z,100941.19
2023-04-18T17:28:07.341Z,100935.91
2023-04-18T17:30:33.784Z,100939.44
2023-04-18T17:33:00.703Z,100933.97
2023-04-18T17:35:27.232Z,100949.53
2023-04-18T17:37:53.768Z,100952.13
2023-04-18T17:40:20.232Z,100956.47
2023-04-18T17:42:46.795Z,100963.88
2023-04-18T17:45:13.178Z,100961.25
2023-04-18T17:47:40.779Z,100976.50
2023-04-18T17:50:08.008Z,100980.13
2023-04-18T17:52:34.680Z,100978.84
2023-04-18T17:55:01.660Z,100974.78
2023-04-18T17:57:30.311Z,100983.09
2023-04-18T17:59:56.938Z,100984.09
2023-04-18T18:02:23.740Z,100980.59
2023-04-18T18:04:51.340Z,100985.19
2023-04-18T18:07:18.280Z,100991.63
2023-04-18T18:09:48.093Z,100993.81
2023-04-18T18:12:14.786Z,100994.72
2023-04-18T18:14:41.223Z,100992.38
2023-04-18T18:17:07.897Z,100998.22
2023-04-18T18:19:36.282Z,101001.31
2023-04-18T18:22:02.879Z,101002.53
2023-04-18T18:24:29.706Z,101013.75
2023-04-18T18:26:58.032Z,101006.06
2023-04-18T18:29:24.574Z,101004.19
2023-04-18T18:31:51.247Z,101004.78
2023-04-18T18:34:17.829Z,101007.66
2023-04-18T18:36:44.353Z,101010.00
2023-04-18T18:39:11.037Z,101022.88
2023-04-18T18:41:37.692Z,101028.63
2023-04-18T18:44:04.219Z,101030.03
2023-04-18T18:46:30.924Z,101025.69
2023-04-18T18:48:57.634Z,101034.13
2023-04-18T18:51:24.177Z,101039.38
2023-04-18T18:53:50.724Z,101034.25
2023-04-18T18:56:17.262Z,101046.75
2023-04-18T18:58:43.779Z,101047.72
2023-04-18T19:01:11.500Z,101051.84
2023-04-18T19:03:38.280Z,101053.06
2023-04-18T19:06:06.984Z,101056.66
2023-04-18T19:08:33.777Z,101051.91
2023-04-18T19:11:00.360Z,101058.53
2023-04-18T19:13:26.882Z,101064.03
2023-04-18T19:15:53.935Z,101069.78
2023-04-18T19:18:21.199Z,101065.75
2023-04-18T19:20:49.948Z,101062.84
2023-04-18T19:23:17.173Z,101073.84
2023-04-18T19:25:45.021Z,101060.50
2023-04-18T19:28:12.922Z,101069.84
2023-04-18T19:30:40.354Z,101063.63
2023-04-18T19:33:07.072Z,101077.81
2023-04-18T19:35:35.289Z,101068.06
2023-04-18T19:38:03.409Z,101073.53
2023-04-18T19:40:29.861Z,101075.69
2023-04-18T19:42:56.668Z,101071.63
2023-04-18T19:45:23.532Z,101081.28
2023-04-18T19:47:50.204Z,101078.25
2023-04-18T19:50:16.886Z,101067.09
2023-04-18T19:52:43.535Z,101068.09
2023-04-18T19:55:10.300Z,101075.91
2023-04-18T19:57:39.186Z,101072.16
2023-04-18T20:00:11.478Z,101075.78
2023-04-18T20:02:42.225Z,101076.00
2023-04-18T20:05:09.486Z,101081.88
2023-04-18T20:07:36.159Z,101082.72
2023-04-18T20:10:04.251Z,101078.47
2023-04-18T20:12:31.133Z,101085.88
2023-04-18T20:14:58.797Z,101086.84
2023-04-18T20:17:30.200Z,101088.53
2023-04-18T20:19:57.218Z,101080.69
2023-04-18T20:22:26.745Z,101081.31
2023-04-18T20:24:57.261Z,101087.69
2023-04-18T20:27:24.274Z,101089.50
2023-04-18T20:29:50.806Z,101093.72
2023-04-18T20:32:17.431Z,101082.31
2023-04-18T20:34:45.777Z,101087.75
2023-04-18T20:37:15.893Z,101084.13
2023-04-18T20:39:42.471Z,101091.00
2023-04-18T20:42:14.324Z,101087.50
2023-04-18T20:44:43.151Z,101094.25
2023-04-18T20:47:09.900Z,101090.50
2023-04-18T20:49:36.717Z,101086.94
2023-04-18T20:52:06.279Z,101100.78
2023-04-18T20:54:32.898Z,101096.72
2023-04-18T20:56:59.580Z,101096.97
2023-04-18T20:59:26.020Z,101090.50
2023-04-18T21:01:52.685Z,101105.72
2023-04-18T21:04:19.479Z,101100.56
2023-04-18T21:06:47.032Z,101097.81
2023-04-18T21:09:13.915Z,101097.97
2023-04-18T21:11:40.686Z,101104.81
2023-04-18T21:14:07.616Z,101100.81
2023-04-18T21:16:34.145Z,101109.28
2023-04-18T21:19:00.707Z,101102.94
2023-04-18T21:21:27.293Z,101098.63
2023-04-18T21:23:53.833Z,101102.97
2023-04-18T21:26:20.911Z,101096.19
2023-04-18T21:29:01.682Z,101098.78
2023-04-18T21:31:30.602Z,101108.34
2023-04-18T21:33:59.290Z,101100.31
2023-04-18T21:36:27.390Z,101101.19
2023-04-18T21:38:56.035Z,101102.72
2023-04-18T21:41:23.290Z,101111.78
2023-04-18T21:43:50.608Z,101109.44
2023-04-18T21:46:17.820Z,101108.75
2023-04-18T21:48:46.405Z,101113.13
2023-04-18T21:51:15.745Z,101114.53
2023-04-18T21:53:42.869Z,101114.63
2023-04-18T21:56:09.360Z,101116.22
2023-04-18T21:58:35.847Z,101113.59
2023-04-18T22:01:02.878Z,101119.13
2023-04-18T22:03:29.997Z,101117.69
2023-04-18T22:05:57.420Z,101113.47
2023-04-18T22:08:28.162Z,101118.81
2023-04-18T22:10:56.278Z,101110.19
2023-04-18T22:13:23.616Z,101112.88
2023-04-18T22:15:51.392Z,101114.72
2023-04-18T22:18:18.956Z,101105.19
2023-04-18T22:20:46.878Z,101106.00
2023-04-18T22:23:13.781Z,101106.03
2023-04-18T22:25:40.581Z,101103.63
2023-04-18T22:28:07.711Z,101105.50
2023-04-18T22:30:34.515Z,101109.94
2023-04-18T22:33:01.172Z,101106.25
2023-04-18T22:35:27.874Z,101105.56
2023-04-18T22:37:55.650Z,101101.47
2023-04-18T22:40:22.138Z,101103.25
2023-04-18T22:42:48.600Z,101104.41
2023-04-18T22:45:15.499Z,101104.91
2023-04-18T22:47:42.206Z,101099.13
2023-04-18T22:50:09.042Z,101109.56
2023-04-18T22:52:35.684Z,101102.41
2023-04-18T22:55:03.148Z,101104.09
2023-04-18T22:57:29.819Z,101101.75
2023-04-18T22:59:56.483Z,101104.38
2023-04-18T23:02:23.094Z,101112.22
2023-04-18T23:04:50.518Z,101101.81
2023-04-18T23:07:17.299Z,101105.38
2023-04-18T23:09:43.858Z,101112.28
2023-04-18T23:12:10.406Z,101118.28
2023-04-18T23:14:36.909Z,101103.59
2023-04-18T23:17:03.366Z,101109.69
2023-04-18T23:19:29.885Z,101110.53
2023-04-18T23:21:56.372Z,101114.91
2023-04-18T23:24:22.816Z,101112.25
2023-04-18T23:26:49.629Z,101112.44
2023-04-18T23:29:16.116Z,101120.31
2023-04-18T23:31:42.772Z,101120.34
2023-04-18T23:34:09.930Z,101117.78
2023-04-18T23:36:37.313Z,101117.91
2023-04-18T23:39:04.277Z,101110.72
2023-04-18T23:41:30.831Z,101108.16
2023-04-18T23:43:57.299Z,101108.94
2023-04-18T23:46:23.791Z,101116.72
2023-04-18T23:48:50.293Z,101109.94
2023-04-18T23:51:16.827Z,101106.44
2023-04-18T23:53:43.272Z,101106.47
2023-04-18T23:56:10.085Z,101112.44
2023-04-18T23:58:36.731Z,101097.72
